sensor_id;sensor_type;location;lat;lon;timestamp;P1;durP1;ratioP1;P2;durP2;ratioP2
67108;SDS011;54027;50.786;7.058;2023-05-10T00:01:02;4.57;;;3.47;;
67108;SDS011;54027;50.786;7.058;2023-05-10T00:03:28;5.60;;;3.60;;
67108;SDS011;54027;50.786;7.058;2023-05-10T00:05:54;6.25;;;3.90;;
67108;SDS011;54027;50.786;7.058;2023-05-10T00:08:19;4.43;;;3.10;;
67108;SDS011;54027;50.786;7.058;2023-05-10T00:10:44;4.68;;;3.30;;
67108;SDS011;54027;50.786;7.058;2023-05-10T00:13:10;4.80;;;3.22;;
67108;SDS011;54027;50.786;7.058;2023-05-10T00:15:35;4.45;;;3.58;;
67108;SDS011;54027;50.786;7.058;2023-05-10T00:18:01;3.92;;;2.80;;
67108;SDS011;54027;50.786;7.058;2023-05-10T00:20:26;4.53;;;3.00;;
67108;SDS011;54027;50.786;7.058;2023-05-10T00:22:51;5.30;;;3.30;;
67108;SDS011;54027;50.786;7.058;2023-05-10T00:25:17;6.20;;;3.33;;
67108;SDS011;54027;50.786;7.058;2023-05-10T00:27:42;7.15;;;3.97;;
67108;SDS011;54027;50.786;7.058;2023-05-10T00:30:08;4.32;;;3.15;;
67108;SDS011;54027;50.786;7.058;2023-05-10T00:32:34;5.95;;;3.47;;
67108;SDS011;54027;50.786;7.058;2023-05-10T00:34:59;7.05;;;3.47;;
67108;SDS011;54027;50.786;7.058;2023-05-10T00:37:25;5.30;;;3.33;;
67108;SDS011;54027;50.786;7.058;2023-05-10T00:39:50;8.13;;;3.38;;
67108;SDS011;54027;50.786;7.058;2023-05-10T00:42:15;4.82;;;2.97;;
67108;SDS011;54027;50.786;7.058;2023-05-10T00:44:41;5.65;;;3.80;;
67108;SDS011;54027;50.786;7.058;2023-05-10T00:47:06;5.25;;;3.70;;
67108;SDS011;54027;50.786;7.058;2023-05-10T00:49:32;5.55;;;3.15;;
67108;SDS011;54027;50.786;7.058;2023-05-10T00:51:59;6.13;;;3.60;;
67108;SDS011;54027;50.786;7.058;2023-05-10T00:54:24;6.03;;;4.15;;
67108;SDS011;54027;50.786;7.058;2023-05-10T00:56:50;9.77;;;3.83;;
67108;SDS011;54027;50.786;7.058;2023-05-10T00:59:16;6.65;;;4.03;;
67108;SDS011;54027;50.786;7.058;2023-05-10T01:01:43;5.60;;;4.03;;
67108;SDS011;54027;50.786;7.058;2023-05-10T01:04:10;6.20;;;4.35;;
67108;SDS011;54027;50.786;7.058;2023-05-10T01:06:37;6.82;;;4.90;;
67108;SDS011;54027;50.786;7.058;2023-05-10T01:09:03;6.32;;;4.10;;
67108;SDS011;54027;50.786;7.058;2023-05-10T01:11:28;7.07;;;4.05;;
67108;SDS011;54027;50.786;7.058;2023-05-10T01:13:55;6.05;;;4.30;;
67108;SDS011;54027;50.786;7.058;2023-05-10T01:16:22;6.95;;;4.68;;
67108;SDS011;54027;50.786;7.058;2023-05-10T01:18:49;6.85;;;4.60;;
67108;SDS011;54027;50.786;7.058;2023-05-10T01:26:55;6.47;;;3.72;;
67108;SDS011;54027;50.786;7.058;2023-05-10T01:34:44;5.50;;;3.15;;
67108;SDS011;54027;50.786;7.058;2023-05-10T01:37:15;8.95;;;3.95;;
67108;SDS011;54027;50.786;7.058;2023-05-10T01:42:16;3.72;;;2.60;;
67108;SDS011;54027;50.786;7.058;2023-05-10T01:44:51;2.92;;;2.20;;
67108;SDS011;54027;50.786;7.058;2023-05-10T01:47:24;3.75;;;2.38;;
67108;SDS011;54027;50.786;7.058;2023-05-10T01:49:56;3.08;;;2.30;;
67108;SDS011;54027;50.786;7.058;2023-05-10T01:52:32;3.58;;;2.33;;
67108;SDS011;54027;50.786;7.058;2023-05-10T01:55:04;3.25;;;2.08;;
67108;SDS011;54027;50.786;7.058;2023-05-10T01:57:33;3.25;;;2.20;;
67108;SDS011;54027;50.786;7.058;2023-05-10T02:00:01;3.35;;;2.20;;
67108;SDS011;54027;50.786;7.058;2023-05-10T02:02:33;3.20;;;2.00;;
67108;SDS011;54027;50.786;7.058;2023-05-10T02:05:02;3.25;;;2.58;;
67108;SDS011;54027;50.786;7.058;2023-05-10T02:07:30;4.18;;;2.80;;
67108;SDS011;54027;50.786;7.058;2023-05-10T02:09:58;3.72;;;2.00;;
67108;SDS011;54027;50.786;7.058;2023-05-10T02:12:25;4.30;;;2.63;;
67108;SDS011;54027;50.786;7.058;2023-05-10T02:14:52;2.80;;;2.10;;
67108;SDS011;54027;50.786;7.058;2023-05-10T02:17:19;4.70;;;2.13;;
67108;SDS011;54027;50.786;7.058;2023-05-10T02:19:46;5.57;;;2.42;;
67108;SDS011;54027;50.786;7.058;2023-05-10T02:22:12;4.30;;;2.40;;
67108;SDS011;54027;50.786;7.058;2023-05-10T02:24:40;3.55;;;2.30;;
67108;SDS011;54027;50.786;7.058;2023-05-10T02:27:06;3.67;;;2.45;;
67108;SDS011;54027;50.786;7.058;2023-05-10T02:29:34;4.18;;;2.33;;
67108;SDS011;54027;50.786;7.058;2023-05-10T02:32:01;5.55;;;3.10;;
67108;SDS011;54027;50.786;7.058;2023-05-10T02:34:28;4.13;;;3.00;;
67108;SDS011;54027;50.786;7.058;2023-05-10T02:36:55;5.35;;;3.33;;
67108;SDS011;54027;50.786;7.058;2023-05-10T02:39:22;6.25;;;3.67;;
67108;SDS011;54027;50.786;7.058;2023-05-10T02:41:49;6.75;;;3.40;;
67108;SDS011;54027;50.786;7.058;2023-05-10T02:44:20;6.75;;;3.90;;
67108;SDS011;54027;50.786;7.058;2023-05-10T02:46:46;5.68;;;3.33;;
67108;SDS011;54027;50.786;7.058;2023-05-10T02:49:12;7.82;;;4.30;;
67108;SDS011;54027;50.786;7.058;2023-05-10T02:51:40;9.27;;;4.82;;
67108;SDS011;54027;50.786;7.058;2023-05-10T02:54:10;9.02;;;5.07;;
67108;SDS011;54027;50.786;7.058;2023-05-10T02:56:42;8.35;;;5.60;;
67108;SDS011;54027;50.786;7.058;2023-05-10T02:59:12;9.68;;;5.70;;
67108;SDS011;54027;50.786;7.058;2023-05-10T03:01:37;12.48;;;6.88;;
67108;SDS011;54027;50.786;7.058;2023-05-10T03:04:03;12.35;;;6.93;;
67108;SDS011;54027;50.786;7.058;2023-05-10T03:06:29;10.40;;;6.75;;
67108;SDS011;54027;50.786;7.058;2023-05-10T03:08:54;14.02;;;8.00;;
67108;SDS011;54027;50.786;7.058;2023-05-10T03:17:04;11.40;;;7.53;;
67108;SDS011;54027;50.786;7.058;2023-05-10T03:22:21;13.35;;;6.60;;
67108;SDS011;54027;50.786;7.058;2023-05-10T03:25:00;13.50;;;8.40;;
67108;SDS011;54027;50.786;7.058;2023-05-10T03:27:30;13.25;;;7.75;;
67108;SDS011;54027;50.786;7.058;2023-05-10T03:29:57;15.77;;;7.93;;
67108;SDS011;54027;50.786;7.058;2023-05-10T03:32:22;15.88;;;7.40;;
67108;SDS011;54027;50.786;7.058;2023-05-10T03:34:48;13.05;;;7.80;;
67108;SDS011;54027;50.786;7.058;2023-05-10T03:37:13;13.25;;;8.27;;
67108;SDS011;54027;50.786;7.058;2023-05-10T03:39:39;14.48;;;7.70;;
67108;SDS011;54027;50.786;7.058;2023-05-10T03:42:04;14.38;;;8.30;;
67108;SDS011;54027;50.786;7.058;2023-05-10T03:44:30;16.55;;;9.10;;
67108;SDS011;54027;50.786;7.058;2023-05-10T03:46:56;15.13;;;8.75;;
67108;SDS011;54027;50.786;7.058;2023-05-10T03:49:22;18.88;;;9.65;;
67108;SDS011;54027;50.786;7.058;2023-05-10T03:51:47;18.27;;;9.63;;
67108;SDS011;54027;50.786;7.058;2023-05-10T03:54:13;19.42;;;10.15;;
67108;SDS011;54027;50.786;7.058;2023-05-10T03:56:38;19.00;;;9.73;;
67108;SDS011;54027;50.786;7.058;2023-05-10T03:59:03;19.83;;;11.10;;
67108;SDS011;54027;50.786;7.058;2023-05-10T04:01:32;21.58;;;11.13;;
67108;SDS011;54027;50.786;7.058;2023-05-10T04:03:58;21.17;;;11.20;;
67108;SDS011;54027;50.786;7.058;2023-05-10T04:06:24;27.85;;;13.30;;
67108;SDS011;54027;50.786;7.058;2023-05-10T04:08:49;28.92;;;12.30;;
67108;SDS011;54027;50.786;7.058;2023-05-10T04:11:14;24.60;;;11.95;;
67108;SDS011;54027;50.786;7.058;2023-05-10T04:13:40;22.08;;;11.70;;
67108;SDS011;54027;50.786;7.058;2023-05-10T04:16:05;23.38;;;11.80;;
67108;SDS011;54027;50.786;7.058;2023-05-10T04:18:31;26.15;;;12.55;;
67108;SDS011;54027;50.786;7.058;2023-05-10T04:20:56;27.15;;;12.30;;
67108;SDS011;54027;50.786;7.058;2023-05-10T04:23:22;24.63;;;12.27;;
67108;SDS011;54027;50.786;7.058;2023-05-10T04:25:48;29.85;;;13.25;;
67108;SDS011;54027;50.786;7.058;2023-05-10T04:28:13;26.67;;;14.32;;
67108;SDS011;54027;50.786;7.058;2023-05-10T04:30:39;29.25;;;14.75;;
67108;SDS011;54027;50.786;7.058;2023-05-10T04:33:05;25.17;;;13.60;;
67108;SDS011;54027;50.786;7.058;2023-05-10T04:35:31;31.02;;;16.05;;
67108;SDS011;54027;50.786;7.058;2023-05-10T04:37:56;34.90;;;15.18;;
67108;SDS011;54027;50.786;7.058;2023-05-10T04:40:21;33.08;;;16.23;;
67108;SDS011;54027;50.786;7.058;2023-05-10T04:42:47;28.77;;;16.67;;
67108;SDS011;54027;50.786;7.058;2023-05-10T04:45:12;31.05;;;16.92;;
67108;SDS011;54027;50.786;7.058;2023-05-10T04:47:39;30.13;;;16.45;;
67108;SDS011;54027;50.786;7.058;2023-05-10T04:50:05;35.80;;;18.15;;
67108;SDS011;54027;50.786;7.058;2023-05-10T04:52:31;35.08;;;18.08;;
67108;SDS011;54027;50.786;7.058;2023-05-10T04:54:56;37.00;;;19.30;;
67108;SDS011;54027;50.786;7.058;2023-05-10T04:57:22;34.53;;;19.48;;
67108;SDS011;54027;50.786;7.058;2023-05-10T04:59:47;38.42;;;19.08;;
67108;SDS011;54027;50.786;7.058;2023-05-10T05:02:13;38.50;;;19.33;;
67108;SDS011;54027;50.786;7.058;2023-05-10T05:04:38;33.85;;;19.02;;
67108;SDS011;54027;50.786;7.058;2023-05-10T05:07:03;30.98;;;18.73;;
67108;SDS011;54027;50.786;7.058;2023-05-10T05:09:29;33.30;;;18.63;;
67108;SDS011;54027;50.786;7.058;2023-05-10T05:11:54;33.70;;;18.80;;
67108;SDS011;54027;50.786;7.058;2023-05-10T05:14:20;34.05;;;18.85;;
67108;SDS011;54027;50.786;7.058;2023-05-10T05:16:50;38.13;;;21.50;;
67108;SDS011;54027;50.786;7.058;2023-05-10T05:19:15;37.00;;;19.92;;
67108;SDS011;54027;50.786;7.058;2023-05-10T05:21:41;34.38;;;18.90;;
67108;SDS011;54027;50.786;7.058;2023-05-10T05:24:06;42.20;;;20.45;;
67108;SDS011;54027;50.786;7.058;2023-05-10T05:26:32;35.35;;;19.67;;
67108;SDS011;54027;50.786;7.058;2023-05-10T05:28:58;33.40;;;19.50;;
67108;SDS011;54027;50.786;7.058;2023-05-10T05:31:23;35.95;;;19.27;;
67108;SDS011;54027;50.786;7.058;2023-05-10T05:33:48;34.38;;;18.30;;
67108;SDS011;54027;50.786;7.058;2023-05-10T05:36:14;35.88;;;19.48;;
67108;SDS011;54027;50.786;7.058;2023-05-10T05:38:39;39.20;;;20.17;;
67108;SDS011;54027;50.786;7.058;2023-05-10T05:41:05;32.65;;;19.40;;
67108;SDS011;54027;50.786;7.058;2023-05-10T05:43:30;39.00;;;19.17;;
67108;SDS011;54027;50.786;7.058;2023-05-10T05:45:56;34.10;;;19.90;;
67108;SDS011;54027;50.786;7.058;2023-05-10T05:48:22;34.03;;;18.98;;
67108;SDS011;54027;50.786;7.058;2023-05-10T05:50:48;29.10;;;18.15;;
67108;SDS011;54027;50.786;7.058;2023-05-10T05:53:13;31.83;;;19.58;;
67108;SDS011;54027;50.786;7.058;2023-05-10T05:55:39;32.75;;;18.25;;
67108;SDS011;54027;50.786;7.058;2023-05-10T05:58:04;30.17;;;18.20;;
67108;SDS011;54027;50.786;7.058;2023-05-10T06:00:29;28.33;;;18.58;;
67108;SDS011;54027;50.786;7.058;2023-05-10T06:02:55;31.23;;;18.25;;
67108;SDS011;54027;50.786;7.058;2023-05-10T06:05:20;31.80;;;18.95;;
67108;SDS011;54027;50.786;7.058;2023-05-10T06:07:46;31.15;;;19.33;;
67108;SDS011;54027;50.786;7.058;2023-05-10T06:10:11;31.27;;;19.77;;
67108;SDS011;54027;50.786;7.058;2023-05-10T06:12:36;30.92;;;18.38;;
67108;SDS011;54027;50.786;7.058;2023-05-10T06:15:02;34.10;;;19.52;;
67108;SDS011;54027;50.786;7.058;2023-05-10T06:17:28;31.33;;;18.73;;
67108;SDS011;54027;50.786;7.058;2023-05-10T06:19:54;27.83;;;17.08;;
67108;SDS011;54027;50.786;7.058;2023-05-10T06:22:20;32.33;;;18.40;;
67108;SDS011;54027;50.786;7.058;2023-05-10T06:24:47;26.80;;;16.70;;
67108;SDS011;54027;50.786;7.058;2023-05-10T06:27:13;25.92;;;16.77;;
67108;SDS011;54027;50.786;7.058;2023-05-10T06:29:38;26.25;;;15.15;;
67108;SDS011;54027;50.786;7.058;2023-05-10T06:32:04;24.38;;;15.93;;
67108;SDS011;54027;50.786;7.058;2023-05-10T06:34:29;23.33;;;13.77;;
67108;SDS011;54027;50.786;7.058;2023-05-10T06:36:54;27.73;;;15.85;;
67108;SDS011;54027;50.786;7.058;2023-05-10T06:39:20;24.30;;;14.52;;
67108;SDS011;54027;50.786;7.058;2023-05-10T06:41:45;19.80;;;12.07;;
67108;SDS011;54027;50.786;7.058;2023-05-10T06:44:10;19.38;;;12.70;;
67108;SDS011;54027;50.786;7.058;2023-05-10T06:46:36;18.48;;;11.57;;
67108;SDS011;54027;50.786;7.058;2023-05-10T06:49:01;20.10;;;11.13;;
67108;SDS011;54027;50.786;7.058;2023-05-10T06:51:27;13.77;;;8.27;;
67108;SDS011;54027;50.786;7.058;2023-05-10T06:53:52;11.02;;;8.10;;
67108;SDS011;54027;50.786;7.058;2023-05-10T06:56:17;10.88;;;7.82;;
67108;SDS011;54027;50.786;7.058;2023-05-10T06:58:43;14.15;;;8.02;;
67108;SDS011;54027;50.786;7.058;2023-05-10T07:01:09;13.65;;;7.47;;
67108;SDS011;54027;50.786;7.058;2023-05-10T07:03:35;9.95;;;6.43;;
67108;SDS011;54027;50.786;7.058;2023-05-10T07:06:03;9.80;;;6.57;;
67108;SDS011;54027;50.786;7.058;2023-05-10T07:08:35;8.68;;;6.18;;
67108;SDS011;54027;50.786;7.058;2023-05-10T07:11:04;9.00;;;5.70;;
67108;SDS011;54027;50.786;7.058;2023-05-10T07:13:32;10.50;;;5.75;;
67108;SDS011;54027;50.786;7.058;2023-05-10T07:15:58;9.50;;;5.95;;
67108;SDS011;54027;50.786;7.058;2023-05-10T07:18:24;6.30;;;5.07;;
67108;SDS011;54027;50.786;7.058;2023-05-10T07:20:50;11.25;;;5.95;;
67108;SDS011;54027;50.786;7.058;2023-05-10T07:23:16;9.43;;;4.55;;
67108;SDS011;54027;50.786;7.058;2023-05-10T07:25:44;8.32;;;4.82;;
67108;SDS011;54027;50.786;7.058;2023-05-10T07:28:10;10.43;;;5.40;;
67108;SDS011;54027;50.786;7.058;2023-05-10T07:30:36;7.78;;;4.35;;
67108;SDS011;54027;50.786;7.058;2023-05-10T07:33:01;7.68;;;4.63;;
67108;SDS011;54027;50.786;7.058;2023-05-10T07:35:27;9.32;;;5.00;;
67108;SDS011;54027;50.786;7.058;2023-05-10T07:37:52;9.05;;;5.38;;
67108;SDS011;54027;50.786;7.058;2023-05-10T07:40:17;10.60;;;5.03;;
67108;SDS011;54027;50.786;7.058;2023-05-10T07:42:43;7.53;;;4.82;;
67108;SDS011;54027;50.786;7.058;2023-05-10T07:45:08;11.15;;;5.22;;
67108;SDS011;54027;50.786;7.058;2023-05-10T07:47:34;13.63;;;6.10;;
67108;SDS011;54027;50.786;7.058;2023-05-10T07:49:59;11.18;;;6.45;;
67108;SDS011;54027;50.786;7.058;2023-05-10T07:52:25;9.65;;;6.07;;
67108;SDS011;54027;50.786;7.058;2023-05-10T07:54:50;10.48;;;6.30;;
67108;SDS011;54027;50.786;7.058;2023-05-10T07:57:16;11.55;;;6.78;;
67108;SDS011;54027;50.786;7.058;2023-05-10T07:59:43;11.27;;;6.82;;
67108;SDS011;54027;50.786;7.058;2023-05-10T08:02:09;10.68;;;5.90;;
67108;SDS011;54027;50.786;7.058;2023-05-10T08:04:34;12.65;;;6.53;;
67108;SDS011;54027;50.786;7.058;2023-05-10T08:07:00;12.68;;;6.15;;
67108;SDS011;54027;50.786;7.058;2023-05-10T08:09:25;11.93;;;7.20;;
67108;SDS011;54027;50.786;7.058;2023-05-10T08:11:51;12.38;;;7.07;;
67108;SDS011;54027;50.786;7.058;2023-05-10T08:14:16;10.65;;;6.45;;
67108;SDS011;54027;50.786;7.058;2023-05-10T08:16:42;9.63;;;5.95;;
67108;SDS011;54027;50.786;7.058;2023-05-10T08:19:07;10.50;;;6.07;;
67108;SDS011;54027;50.786;7.058;2023-05-10T08:21:32;9.65;;;5.78;;
67108;SDS011;54027;50.786;7.058;2023-05-10T08:23:58;11.25;;;6.38;;
67108;SDS011;54027;50.786;7.058;2023-05-10T08:26:23;11.65;;;5.90;;
67108;SDS011;54027;50.786;7.058;2023-05-10T08:28:49;11.43;;;5.25;;
67108;SDS011;54027;50.786;7.058;2023-05-10T08:31:14;9.32;;;5.47;;
67108;SDS011;54027;50.786;7.058;2023-05-10T08:33:40;10.55;;;6.47;;
67108;SDS011;54027;50.786;7.058;2023-05-10T08:36:06;8.45;;;5.13;;
67108;SDS011;54027;50.786;7.058;2023-05-10T08:38:31;10.25;;;6.03;;
67108;SDS011;54027;50.786;7.058;2023-05-10T08:40:56;9.15;;;4.18;;
67108;SDS011;54027;50.786;7.058;2023-05-10T08:43:24;7.55;;;3.53;;
67108;SDS011;54027;50.786;7.058;2023-05-10T08:45:53;7.00;;;4.00;;
67108;SDS011;54027;50.786;7.058;2023-05-10T08:48:20;7.05;;;4.18;;
67108;SDS011;54027;50.786;7.058;2023-05-10T08:50:48;6.10;;;3.20;;
67108;SDS011;54027;50.786;7.058;2023-05-10T08:53:17;9.38;;;4.40;;
67108;SDS011;54027;50.786;7.058;2023-05-10T08:55:44;6.30;;;3.65;;
67108;SDS011;54027;50.786;7.058;2023-05-10T08:58:11;4.13;;;3.13;;
67108;SDS011;54027;50.786;7.058;2023-05-10T09:00:36;2.50;;;1.70;;
67108;SDS011;54027;50.786;7.058;2023-05-10T09:03:05;2.15;;;1.52;;
67108;SDS011;54027;50.786;7.058;2023-05-10T09:05:31;1.15;;;0.93;;
67108;SDS011;54027;50.786;7.058;2023-05-10T09:07:57;1.40;;;0.80;;
67108;SDS011;54027;50.786;7.058;2023-05-10T09:10:23;2.80;;;1.08;;
67108;SDS011;54027;50.786;7.058;2023-05-10T09:12:52;1.60;;;0.95;;
67108;SDS011;54027;50.786;7.058;2023-05-10T09:15:18;1.13;;;0.70;;
67108;SDS011;54027;50.786;7.058;2023-05-10T09:17:45;1.45;;;1.00;;
67108;SDS011;54027;50.786;7.058;2023-05-10T09:20:11;3.08;;;1.25;;
67108;SDS011;54027;50.786;7.058;2023-05-10T09:22:36;1.30;;;1.05;;
67108;SDS011;54027;50.786;7.058;2023-05-10T09:25:09;2.10;;;1.23;;
67108;SDS011;54027;50.786;7.058;2023-05-10T09:27:36;1.83;;;1.05;;
67108;SDS011;54027;50.786;7.058;2023-05-10T09:30:03;3.83;;;1.35;;
67108;SDS011;54027;50.786;7.058;2023-05-10T09:35:13;3.38;;;1.55;;
67108;SDS011;54027;50.786;7.058;2023-05-10T09:37:40;2.35;;;1.45;;
67108;SDS011;54027;50.786;7.058;2023-05-10T09:40:08;2.97;;;1.95;;
67108;SDS011;54027;50.786;7.058;2023-05-10T09:42:36;2.28;;;1.80;;
67108;SDS011;54027;50.786;7.058;2023-05-10T09:45:05;3.00;;;1.52;;
67108;SDS011;54027;50.786;7.058;2023-05-10T09:47:32;3.90;;;1.80;;
67108;SDS011;54027;50.786;7.058;2023-05-10T09:49:59;2.53;;;1.80;;
67108;SDS011;54027;50.786;7.058;2023-05-10T09:52:28;3.25;;;2.10;;
67108;SDS011;54027;50.786;7.058;2023-05-10T09:54:54;4.10;;;2.50;;
67108;SDS011;54027;50.786;7.058;2023-05-10T09:57:20;5.43;;;3.13;;
67108;SDS011;54027;50.786;7.058;2023-05-10T09:59:47;6.22;;;3.88;;
67108;SDS011;54027;50.786;7.058;2023-05-10T10:02:13;8.80;;;5.28;;
67108;SDS011;54027;50.786;7.058;2023-05-10T10:04:39;7.63;;;4.88;;
67108;SDS011;54027;50.786;7.058;2023-05-10T10:07:05;7.57;;;5.22;;
67108;SDS011;54027;50.786;7.058;2023-05-10T10:09:31;9.57;;;5.05;;
67108;SDS011;54027;50.786;7.058;2023-05-10T10:11:58;8.98;;;6.00;;
67108;SDS011;54027;50.786;7.058;2023-05-10T10:14:25;10.80;;;6.40;;
67108;SDS011;54027;50.786;7.058;2023-05-10T10:16:50;12.00;;;7.05;;
67108;SDS011;54027;50.786;7.058;2023-05-10T10:19:17;16.15;;;8.07;;
67108;SDS011;54027;50.786;7.058;2023-05-10T10:21:45;13.77;;;7.88;;
67108;SDS011;54027;50.786;7.058;2023-05-10T10:24:10;15.77;;;8.52;;
67108;SDS011;54027;50.786;7.058;2023-05-10T10:26:35;16.40;;;9.85;;
67108;SDS011;54027;50.786;7.058;2023-05-10T10:32:06;16.58;;;9.35;;
67108;SDS011;54027;50.786;7.058;2023-05-10T10:34:33;14.85;;;8.30;;
67108;SDS011;54027;50.786;7.058;2023-05-10T10:37:03;13.35;;;8.13;;
67108;SDS011;54027;50.786;7.058;2023-05-10T10:39:29;15.73;;;9.25;;
67108;SDS011;54027;50.786;7.058;2023-05-10T10:41:56;11.93;;;7.82;;
67108;SDS011;54027;50.786;7.058;2023-05-10T10:50:02;11.40;;;6.70;;
67108;SDS011;54027;50.786;7.058;2023-05-10T10:52:30;11.82;;;7.45;;
67108;SDS011;54027;50.786;7.058;2023-05-10T10:57:57;8.13;;;5.30;;
67108;SDS011;54027;50.786;7.058;2023-05-10T11:00:28;7.45;;;4.70;;
67108;SDS011;54027;50.786;7.058;2023-05-10T11:02:56;5.72;;;3.75;;
67108;SDS011;54027;50.786;7.058;2023-05-10T11:08:10;2.70;;;1.88;;
67108;SDS011;54027;50.786;7.058;2023-05-10T11:10:39;1.90;;;1.40;;
67108;SDS011;54027;50.786;7.058;2023-05-10T11:13:13;1.80;;;1.40;;
67108;SDS011;54027;50.786;7.058;2023-05-10T11:15:39;1.85;;;1.52;;
67108;SDS011;54027;50.786;7.058;2023-05-10T11:18:16;1.77;;;1.45;;
67108;SDS011;54027;50.786;7.058;2023-05-10T11:20:52;3.17;;;1.60;;
67108;SDS011;54027;50.786;7.058;2023-05-10T11:26:07;2.05;;;1.65;;
67108;SDS011;54027;50.786;7.058;2023-05-10T11:28:34;1.52;;;1.20;;
67108;SDS011;54027;50.786;7.058;2023-05-10T11:31:00;1.13;;;1.00;;
67108;SDS011;54027;50.786;7.058;2023-05-10T11:33:25;1.48;;;0.90;;
67108;SDS011;54027;50.786;7.058;2023-05-10T11:35:50;1.10;;;0.85;;
67108;SDS011;54027;50.786;7.058;2023-05-10T11:38:16;1.13;;;1.02;;
67108;SDS011;54027;50.786;7.058;2023-05-10T11:40:41;1.50;;;1.00;;
67108;SDS011;54027;50.786;7.058;2023-05-10T11:43:08;2.83;;;1.00;;
67108;SDS011;54027;50.786;7.058;2023-05-10T11:45:35;1.27;;;1.00;;
67108;SDS011;54027;50.786;7.058;2023-05-10T11:48:00;1.35;;;1.00;;
67108;SDS011;54027;50.786;7.058;2023-05-10T11:50:27;0.98;;;0.85;;
67108;SDS011;54027;50.786;7.058;2023-05-10T11:52:53;1.35;;;1.00;;
67108;SDS011;54027;50.786;7.058;2023-05-10T11:55:22;2.05;;;1.30;;
67108;SDS011;54027;50.786;7.058;2023-05-10T11:57:52;2.25;;;1.25;;
67108;SDS011;54027;50.786;7.058;2023-05-10T12:00:18;1.48;;;1.25;;
67108;SDS011;54027;50.786;7.058;2023-05-10T12:02:44;3.10;;;1.30;;
67108;SDS011;54027;50.786;7.058;2023-05-10T12:05:10;1.42;;;1.30;;
67108;SDS011;54027;50.786;7.058;2023-05-10T12:07:35;1.73;;;1.50;;
67108;SDS011;54027;50.786;7.058;2023-05-10T12:10:11;1.35;;;1.20;;
67108;SDS011;54027;50.786;7.058;2023-05-10T12:12:43;1.65;;;1.30;;
67108;SDS011;54027;50.786;7.058;2023-05-10T12:15:16;1.92;;;1.17;;
67108;SDS011;54027;50.786;7.058;2023-05-10T12:17:44;1.35;;;1.00;;
67108;SDS011;54027;50.786;7.058;2023-05-10T12:20:17;0.77;;;0.60;;
67108;SDS011;54027;50.786;7.058;2023-05-10T12:25:16;0.80;;;0.70;;
67108;SDS011;54027;50.786;7.058;2023-05-10T12:27:52;0.90;;;0.63;;
67108;SDS011;54027;50.786;7.058;2023-05-10T12:32:53;2.30;;;1.10;;
67108;SDS011;54027;50.786;7.058;2023-05-10T12:35:19;1.35;;;0.90;;
67108;SDS011;54027;50.786;7.058;2023-05-10T12:37:49;2.10;;;0.90;;
67108;SDS011;54027;50.786;7.058;2023-05-10T12:40:16;3.13;;;1.20;;
67108;SDS011;54027;50.786;7.058;2023-05-10T12:42:41;1.00;;;0.90;;
67108;SDS011;54027;50.786;7.058;2023-05-10T12:45:07;1.08;;;0.75;;
67108;SDS011;54027;50.786;7.058;2023-05-10T12:47:33;0.95;;;0.80;;
67108;SDS011;54027;50.786;7.058;2023-05-10T12:49:59;3.22;;;0.95;;
67108;SDS011;54027;50.786;7.058;2023-05-10T12:52:26;1.52;;;0.82;;
67108;SDS011;54027;50.786;7.058;2023-05-10T12:54:52;0.98;;;0.65;;
67108;SDS011;54027;50.786;7.058;2023-05-10T12:57:18;1.42;;;0.75;;
67108;SDS011;54027;50.786;7.058;2023-05-10T12:59:43;1.73;;;0.90;;
67108;SDS011;54027;50.786;7.058;2023-05-10T13:02:09;1.05;;;0.90;;
67108;SDS011;54027;50.786;7.058;2023-05-10T13:04:35;2.47;;;1.23;;
67108;SDS011;54027;50.786;7.058;2023-05-10T13:07:04;3.85;;;1.13;;
67108;SDS011;54027;50.786;7.058;2023-05-10T13:09:30;0.93;;;0.77;;
67108;SDS011;54027;50.786;7.058;2023-05-10T13:11:55;0.85;;;0.70;;
67108;SDS011;54027;50.786;7.058;2023-05-10T13:14:20;1.35;;;0.80;;
67108;SDS011;54027;50.786;7.058;2023-05-10T13:16:46;1.30;;;0.68;;
67108;SDS011;54027;50.786;7.058;2023-05-10T13:19:12;1.02;;;0.63;;
67108;SDS011;54027;50.786;7.058;2023-05-10T13:21:38;0.80;;;0.80;;
67108;SDS011;54027;50.786;7.058;2023-05-10T13:24:06;0.75;;;0.60;;
67108;SDS011;54027;50.786;7.058;2023-05-10T13:26:31;0.90;;;0.60;;
67108;SDS011;54027;50.786;7.058;2023-05-10T13:28:57;2.33;;;1.10;;
67108;SDS011;54027;50.786;7.058;2023-05-10T13:31:22;0.70;;;0.60;;
67108;SDS011;54027;50.786;7.058;2023-05-10T13:33:48;5.68;;;0.98;;
67108;SDS011;54027;50.786;7.058;2023-05-10T13:36:13;2.00;;;1.33;;
67108;SDS011;54027;50.786;7.058;2023-05-10T13:38:39;1.13;;;0.70;;
67108;SDS011;54027;50.786;7.058;2023-05-10T13:41:04;2.28;;;0.80;;
67108;SDS011;54027;50.786;7.058;2023-05-10T13:43:29;2.05;;;0.75;;
67108;SDS011;54027;50.786;7.058;2023-05-10T13:45:55;1.17;;;0.82;;
67108;SDS011;54027;50.786;7.058;2023-05-10T13:48:20;0.98;;;0.77;;
67108;SDS011;54027;50.786;7.058;2023-05-10T13:50:46;1.48;;;1.00;;
67108;SDS011;54027;50.786;7.058;2023-05-10T13:53:11;0.90;;;0.70;;
67108;SDS011;54027;50.786;7.058;2023-05-10T13:55:37;1.55;;;0.90;;
67108;SDS011;54027;50.786;7.058;2023-05-10T13:58:02;1.73;;;1.00;;
67108;SDS011;54027;50.786;7.058;2023-05-10T14:00:28;2.05;;;1.10;;
67108;SDS011;54027;50.786;7.058;2023-05-10T14:02:53;1.05;;;0.77;;
67108;SDS011;54027;50.786;7.058;2023-05-10T14:05:19;1.45;;;0.80;;
67108;SDS011;54027;50.786;7.058;2023-05-10T14:07:45;1.33;;;0.77;;
67108;SDS011;54027;50.786;7.058;2023-05-10T14:10:10;5.30;;;0.98;;
67108;SDS011;54027;50.786;7.058;2023-05-10T14:12:36;1.27;;;0.80;;
67108;SDS011;54027;50.786;7.058;2023-05-10T14:15:01;3.97;;;0.90;;
67108;SDS011;54027;50.786;7.058;2023-05-10T14:17:27;2.33;;;0.95;;
67108;SDS011;54027;50.786;7.058;2023-05-10T14:19:52;1.20;;;0.80;;
67108;SDS011;54027;50.786;7.058;2023-05-10T14:22:18;2.75;;;1.20;;
67108;SDS011;54027;50.786;7.058;2023-05-10T14:24:43;1.52;;;0.80;;
67108;SDS011;54027;50.786;7.058;2023-05-10T14:27:11;4.75;;;1.10;;
67108;SDS011;54027;50.786;7.058;2023-05-10T14:29:37;4.55;;;1.00;;
67108;SDS011;54027;50.786;7.058;2023-05-10T14:32:03;1.20;;;1.00;;
67108;SDS011;54027;50.786;7.058;2023-05-10T14:34:28;3.38;;;0.98;;
67108;SDS011;54027;50.786;7.058;2023-05-10T14:36:53;2.05;;;0.82;;
67108;SDS011;54027;50.786;7.058;2023-05-10T14:39:20;3.53;;;1.05;;
67108;SDS011;54027;50.786;7.058;2023-05-10T14:41:45;3.47;;;0.95;;
67108;SDS011;54027;50.786;7.058;2023-05-10T14:44:12;1.65;;;1.05;;
67108;SDS011;54027;50.786;7.058;2023-05-10T14:46:38;3.30;;;1.08;;
67108;SDS011;54027;50.786;7.058;2023-05-10T14:49:04;1.90;;;1.10;;
67108;SDS011;54027;50.786;7.058;2023-05-10T14:51:29;6.03;;;1.13;;
67108;SDS011;54027;50.786;7.058;2023-05-10T14:53:56;1.55;;;0.98;;
67108;SDS011;54027;50.786;7.058;2023-05-10T14:56:22;1.73;;;0.80;;
67108;SDS011;54027;50.786;7.058;2023-05-10T14:58:47;2.65;;;1.17;;
67108;SDS011;54027;50.786;7.058;2023-05-10T15:01:12;1.70;;;0.90;;
67108;SDS011;54027;50.786;7.058;2023-05-10T15:03:38;1.27;;;0.90;;
67108;SDS011;54027;50.786;7.058;2023-05-10T15:06:03;2.40;;;1.08;;
67108;SDS011;54027;50.786;7.058;2023-05-10T15:08:29;1.55;;;0.90;;
67108;SDS011;54027;50.786;7.058;2023-05-10T15:10:54;2.45;;;0.80;;
67108;SDS011;54027;50.786;7.058;2023-05-10T15:13:21;1.80;;;1.17;;
67108;SDS011;54027;50.786;7.058;2023-05-10T15:15:46;3.13;;;1.10;;
67108;SDS011;54027;50.786;7.058;2023-05-10T15:18:12;2.80;;;1.00;;
67108;SDS011;54027;50.786;7.058;2023-05-10T15:20:37;2.90;;;1.10;;
67108;SDS011;54027;50.786;7.058;2023-05-10T15:23:02;1.42;;;1.10;;